sensor_id;sensor_type;location;lat;lon;timestamp;temperature;humidity
27747;DHT22;15138;51.012;4.692;2022-12-18T00:01:16;-1.50;1.00
27747;DHT22;15138;51.012;4.692;2022-12-18T00:03:44;-1.40;99.90
27747;DHT22;15138;51.012;4.692;2022-12-18T00:06:12;-1.40;99.90
27747;DHT22;15138;51.012;4.692;2022-12-18T00:08:41;-1.40;99.90
27747;DHT22;15138;51.012;4.692;2022-12-18T00:11:10;-1.40;99.90
27747;DHT22;15138;51.012;4.692;2022-12-18T00:13:39;-1.40;99.90
27747;DHT22;15138;51.012;4.692;2022-12-18T00:16:09;-1.40;99.90
27747;DHT22;15138;51.012;4.692;2022-12-18T00:18:39;-1.50;99.90
27747;DHT22;15138;51.012;4.692;2022-12-18T00:21:08;-1.50;99.90
27747;DHT22;15138;51.012;4.692;2022-12-18T00:23:37;-1.60;99.90
27747;DHT22;15138;51.012;4.692;2022-12-18T00:26:06;-1.20;99.90
27747;DHT22;15138;51.012;4.692;2022-12-18T00:28:36;-1.90;99.90
27747;DHT22;15138;51.012;4.692;2022-12-18T00:31:05;-2.00;99.90
27747;DHT22;15138;51.012;4.692;2022-12-18T00:33:34;-2.20;99.90
27747;DHT22;15138;51.012;4.692;2022-12-18T00:36:04;-2.20;99.90
27747;DHT22;15138;51.012;4.692;2022-12-18T00:38:32;-2.30;99.90
27747;DHT22;15138;51.012;4.692;2022-12-18T00:41:00;-2.30;99.90
27747;DHT22;15138;51.012;4.692;2022-12-18T00:43:28;-2.20;99.90
27747;DHT22;15138;51.012;4.692;2022-12-18T00:45:55;-2.00;99.90
27747;DHT22;15138;51.012;4.692;2022-12-18T00:48:23;-2.00;99.90
27747;DHT22;15138;51.012;4.692;2022-12-18T00:50:51;-1.90;92.00
27747;DHT22;15138;51.012;4.692;2022-12-18T00:53:20;-1.90;28.50
27747;DHT22;15138;51.012;4.692;2022-12-18T00:55:48;-1.90;41.10
27747;DHT22;15138;51.012;4.692;2022-12-18T00:58:16;-1.90;30.00
27747;DHT22;15138;51.012;4.692;2022-12-18T01:00:44;-1.90;1.00
27747;DHT22;15138;51.012;4.692;2022-12-18T01:03:13;-2.00;1.00
27747;DHT22;15138;51.012;4.692;2022-12-18T01:05:41;-1.90;1.00
27747;DHT22;15138;51.012;4.692;2022-12-18T01:08:09;-1.90;1.00
27747;DHT22;15138;51.012;4.692;2022-12-18T01:10:40;-1.90;1.00
27747;DHT22;15138;51.012;4.692;2022-12-18T01:13:08;-1.90;1.00
27747;DHT22;15138;51.012;4.692;2022-12-18T01:15:36;-1.90;1.00
27747;DHT22;15138;51.012;4.692;2022-12-18T01:18:04;-1.70;1.00
27747;DHT22;15138;51.012;4.692;2022-12-18T01:20:32;-2.00;1.00
27747;DHT22;15138;51.012;4.692;2022-12-18T01:23:00;-2.30;99.90
27747;DHT22;15138;51.012;4.692;2022-12-18T01:25:27;-2.30;1.00
27747;DHT22;15138;51.012;4.692;2022-12-18T01:27:57;-2.10;1.00
27747;DHT22;15138;51.012;4.692;2022-12-18T01:30:24;-2.10;99.90
27747;DHT22;15138;51.012;4.692;2022-12-18T01:32:52;-2.10;99.90
27747;DHT22;15138;51.012;4.692;2022-12-18T01:35:20;-2.10;99.90
27747;DHT22;15138;51.012;4.692;2022-12-18T01:37:48;-2.10;99.90
27747;DHT22;15138;51.012;4.692;2022-12-18T01:40:16;-2.30;99.90
27747;DHT22;15138;51.012;4.692;2022-12-18T01:42:44;-2.20;99.90
27747;DHT22;15138;51.012;4.692;2022-12-18T01:45:26;-2.10;99.90
27747;DHT22;15138;51.012;4.692;2022-12-18T01:47:55;-2.20;99.90
27747;DHT22;15138;51.012;4.692;2022-12-18T01:50:24;-2.10;99.90
27747;DHT22;15138;51.012;4.692;2022-12-18T01:52:53;-2.20;99.90
27747;DHT22;15138;51.012;4.692;2022-12-18T01:55:23;-1.60;99.90
27747;DHT22;15138;51.012;4.692;2022-12-18T01:57:52;-2.00;99.90
27747;DHT22;15138;51.012;4.692;2022-12-18T02:00:21;-1.50;99.90
27747;DHT22;15138;51.012;4.692;2022-12-18T02:02:51;-2.10;99.90
27747;DHT22;15138;51.012;4.692;2022-12-18T02:05:22;-2.10;99.90
27747;DHT22;15138;51.012;4.692;2022-12-18T02:07:55;-1.60;99.90
27747;DHT22;15138;51.012;4.692;2022-12-18T02:10:26;-2.20;99.90
27747;DHT22;15138;51.012;4.692;2022-12-18T02:12:56;-2.10;99.90
27747;DHT22;15138;51.012;4.692;2022-12-18T02:15:27;-2.20;99.90
27747;DHT22;15138;51.012;4.692;2022-12-18T02:18:01;-2.20;99.90
27747;DHT22;15138;51.012;4.692;2022-12-18T02:20:32;-1.70;99.90
27747;DHT22;15138;51.012;4.692;2022-12-18T02:23:06;-1.60;99.90
27747;DHT22;15138;51.012;4.692;2022-12-18T02:25:40;-2.20;99.90
27747;DHT22;15138;51.012;4.692;2022-12-18T02:28:13;-2.30;99.90
27747;DHT22;15138;51.012;4.692;2022-12-18T02:30:41;-2.30;99.90
27747;DHT22;15138;51.012;4.692;2022-12-18T02:33:10;-2.30;99.90
27747;DHT22;15138;51.012;4.692;2022-12-18T02:35:38;-2.30;99.90
27747;DHT22;15138;51.012;4.692;2022-12-18T02:38:08;-2.30;99.90
27747;DHT22;15138;51.012;4.692;2022-12-18T02:40:36;-2.30;99.90
27747;DHT22;15138;51.012;4.692;2022-12-18T02:43:06;-2.30;99.90
27747;DHT22;15138;51.012;4.692;2022-12-18T02:45:36;-2.30;99.90
27747;DHT22;15138;51.012;4.692;2022-12-18T02:48:04;-1.90;99.90
27747;DHT22;15138;51.012;4.692;2022-12-18T02:50:34;-2.30;99.90
27747;DHT22;15138;51.012;4.692;2022-12-18T02:53:04;-2.40;99.90
27747;DHT22;15138;51.012;4.692;2022-12-18T02:55:39;-2.30;99.90
27747;DHT22;15138;51.012;4.692;2022-12-18T02:58:12;-1.90;99.90
27747;DHT22;15138;51.012;4.692;2022-12-18T03:00:43;-2.30;99.90
27747;DHT22;15138;51.012;4.692;2022-12-18T03:03:17;-1.80;99.90
27747;DHT22;15138;51.012;4.692;2022-12-18T03:05:47;-2.00;99.90
27747;DHT22;15138;51.012;4.692;2022-12-18T03:08:18;-2.40;99.90
27747;DHT22;15138;51.012;4.692;2022-12-18T03:10:51;-2.40;99.90
27747;DHT22;15138;51.012;4.692;2022-12-18T03:13:23;-2.10;99.90
27747;DHT22;15138;51.012;4.692;2022-12-18T03:15:55;-2.50;99.90
27747;DHT22;15138;51.012;4.692;2022-12-18T03:18:24;-2.50;99.90
27747;DHT22;15138;51.012;4.692;2022-12-18T03:20:53;-2.50;99.90
27747;DHT22;15138;51.012;4.692;2022-12-18T03:23:22;-2.10;99.90
27747;DHT22;15138;51.012;4.692;2022-12-18T03:25:52;-2.30;99.90
27747;DHT22;15138;51.012;4.692;2022-12-18T03:28:22;-2.60;99.90
27747;DHT22;15138;51.012;4.692;2022-12-18T03:30:51;-2.60;99.90
27747;DHT22;15138;51.012;4.692;2022-12-18T03:33:23;-2.60;99.90
27747;DHT22;15138;51.012;4.692;2022-12-18T03:35:53;-2.60;99.90
27747;DHT22;15138;51.012;4.692;2022-12-18T03:38:21;-2.30;99.90
27747;DHT22;15138;51.012;4.692;2022-12-18T03:40:51;-2.60;99.90
27747;DHT22;15138;51.012;4.692;2022-12-18T03:43:24;-2.60;99.90
27747;DHT22;15138;51.012;4.692;2022-12-18T03:45:58;-2.60;99.90
27747;DHT22;15138;51.012;4.692;2022-12-18T03:48:31;-2.70;92.50
27747;DHT22;15138;51.012;4.692;2022-12-18T03:51:03;-2.70;99.90
27747;DHT22;15138;51.012;4.692;2022-12-18T03:53:34;-2.60;99.90
27747;DHT22;15138;51.012;4.692;2022-12-18T03:56:04;-2.60;99.90
27747;DHT22;15138;51.012;4.692;2022-12-18T03:58:32;-2.60;99.90
27747;DHT22;15138;51.012;4.692;2022-12-18T04:01:01;-2.60;99.90
27747;DHT22;15138;51.012;4.692;2022-12-18T04:03:32;-2.60;99.90
27747;DHT22;15138;51.012;4.692;2022-12-18T04:06:02;-2.50;99.90
27747;DHT22;15138;51.012;4.692;2022-12-18T04:08:31;-2.60;99.90
27747;DHT22;15138;51.012;4.692;2022-12-18T04:10:59;-2.60;99.90
27747;DHT22;15138;51.012;4.692;2022-12-18T04:13:28;-2.80;82.10
27747;DHT22;15138;51.012;4.692;2022-12-18T04:15:56;-2.70;99.10
27747;DHT22;15138;51.012;4.692;2022-12-18T04:18:25;-2.70;91.80
27747;DHT22;15138;51.012;4.692;2022-12-18T04:20:54;-2.70;68.50
27747;DHT22;15138;51.012;4.692;2022-12-18T04:23:22;-2.70;67.30
27747;DHT22;15138;51.012;4.692;2022-12-18T04:25:50;-2.70;62.50
27747;DHT22;15138;51.012;4.692;2022-12-18T04:28:18;-2.60;73.50
27747;DHT22;15138;51.012;4.692;2022-12-18T04:30:46;-2.90;28.70
27747;DHT22;15138;51.012;4.692;2022-12-18T04:33:17;-3.10;12.70
27747;DHT22;15138;51.012;4.692;2022-12-18T04:35:46;-3.10;33.10
27747;DHT22;15138;51.012;4.692;2022-12-18T04:38:15;-3.10;69.70
27747;DHT22;15138;51.012;4.692;2022-12-18T04:40:43;-3.00;61.40
27747;DHT22;15138;51.012;4.692;2022-12-18T04:43:11;-3.00;62.20
27747;DHT22;15138;51.012;4.692;2022-12-18T04:45:39;-3.00;58.70
27747;DHT22;15138;51.012;4.692;2022-12-18T04:48:06;-2.50;63.50
27747;DHT22;15138;51.012;4.692;2022-12-18T04:50:35;-2.90;30.00
27747;DHT22;15138;51.012;4.692;2022-12-18T04:53:03;-2.90;29.60
27747;DHT22;15138;51.012;4.692;2022-12-18T04:55:32;-2.80;88.80
27747;DHT22;15138;51.012;4.692;2022-12-18T04:58:00;-2.70;83.90
27747;DHT22;15138;51.012;4.692;2022-12-18T05:00:28;-2.70;59.30
27747;DHT22;15138;51.012;4.692;2022-12-18T05:02:56;-2.80;32.60
27747;DHT22;15138;51.012;4.692;2022-12-18T05:05:24;-2.80;16.20
27747;DHT22;15138;51.012;4.692;2022-12-18T05:07:52;-2.80;27.80
27747;DHT22;15138;51.012;4.692;2022-12-18T05:10:19;-2.90;11.30
27747;DHT22;15138;51.012;4.692;2022-12-18T05:12:49;-2.90;35.70
27747;DHT22;15138;51.012;4.692;2022-12-18T05:15:27;-2.70;33.50
27747;DHT22;15138;51.012;4.692;2022-12-18T05:17:55;-2.80;39.20
27747;DHT22;15138;51.012;4.692;2022-12-18T05:20:24;-2.80;29.00
27747;DHT22;15138;51.012;4.692;2022-12-18T05:22:53;-2.80;26.60
27747;DHT22;15138;51.012;4.692;2022-12-18T05:25:21;-2.60;12.20
27747;DHT22;15138;51.012;4.692;2022-12-18T05:27:50;-2.80;8.00
27747;DHT22;15138;51.012;4.692;2022-12-18T05:30:18;-2.80;1.00
27747;DHT22;15138;51.012;4.692;2022-12-18T05:32:45;-2.90;1.00
27747;DHT22;15138;51.012;4.692;2022-12-18T05:35:13;-2.90;1.00
27747;DHT22;15138;51.012;4.692;2022-12-18T05:37:41;-2.90;1.00
27747;DHT22;15138;51.012;4.692;2022-12-18T05:40:10;-2.80;1.00
27747;DHT22;15138;51.012;4.692;2022-12-18T05:42:38;-2.90;1.00
27747;DHT22;15138;51.012;4.692;2022-12-18T05:45:07;-2.80;1.00
27747;DHT22;15138;51.012;4.692;2022-12-18T05:47:35;-2.90;1.00
27747;DHT22;15138;51.012;4.692;2022-12-18T05:50:03;-2.90;1.00
27747;DHT22;15138;51.012;4.692;2022-12-18T05:52:31;-2.80;1.00
27747;DHT22;15138;51.012;4.692;2022-12-18T05:54:59;-2.80;1.00
27747;DHT22;15138;51.012;4.692;2022-12-18T05:57:27;-2.70;1.00
27747;DHT22;15138;51.012;4.692;2022-12-18T05:59:55;-2.90;1.00
27747;DHT22;15138;51.012;4.692;2022-12-18T06:02:24;-2.80;1.00
27747;DHT22;15138;51.012;4.692;2022-12-18T06:04:52;-2.80;1.00
27747;DHT22;15138;51.012;4.692;2022-12-18T06:07:20;-2.80;1.00
27747;DHT22;15138;51.012;4.692;2022-12-18T06:09:48;-2.80;1.00
27747;DHT22;15138;51.012;4.692;2022-12-18T06:12:16;-2.90;1.00
27747;DHT22;15138;51.012;4.692;2022-12-18T06:14:44;-2.90;1.00
27747;DHT22;15138;51.012;4.692;2022-12-18T06:17:12;-2.60;1.00
27747;DHT22;15138;51.012;4.692;2022-12-18T06:19:41;-3.10;1.00
27747;DHT22;15138;51.012;4.692;2022-12-18T06:22:09;-3.00;1.00
27747;DHT22;15138;51.012;4.692;2022-12-18T06:24:37;-3.00;1.00
27747;DHT22;15138;51.012;4.692;2022-12-18T06:27:05;-2.90;1.00
27747;DHT22;15138;51.012;4.692;2022-12-18T06:29:33;-2.90;1.00
27747;DHT22;15138;51.012;4.692;2022-12-18T06:32:01;-2.90;1.00
27747;DHT22;15138;51.012;4.692;2022-12-18T06:34:29;-2.80;1.00
27747;DHT22;15138;51.012;4.692;2022-12-18T06:36:58;-3.10;1.00
27747;DHT22;15138;51.012;4.692;2022-12-18T06:39:26;-3.00;1.00
27747;DHT22;15138;51.012;4.692;2022-12-18T06:41:54;-3.10;1.00
27747;DHT22;15138;51.012;4.692;2022-12-18T06:44:22;-2.50;1.00
27747;DHT22;15138;51.012;4.692;2022-12-18T06:46:50;-3.10;1.00
27747;DHT22;15138;51.012;4.692;2022-12-18T06:49:18;-3.10;1.00
27747;DHT22;15138;51.012;4.692;2022-12-18T06:51:46;-3.00;1.00
27747;DHT22;15138;51.012;4.692;2022-12-18T06:54:15;-3.10;1.00
27747;DHT22;15138;51.012;4.692;2022-12-18T06:56:44;-3.30;1.00
27747;DHT22;15138;51.012;4.692;2022-12-18T06:59:12;-3.40;1.00
27747;DHT22;15138;51.012;4.692;2022-12-18T07:01:41;-3.40;1.00
27747;DHT22;15138;51.012;4.692;2022-12-18T07:04:09;-3.30;1.00
27747;DHT22;15138;51.012;4.692;2022-12-18T07:06:36;-3.10;1.00
27747;DHT22;15138;51.012;4.692;2022-12-18T07:09:04;-2.80;1.00
27747;DHT22;15138;51.012;4.692;2022-12-18T07:11:33;-3.10;1.00
27747;DHT22;15138;51.012;4.692;2022-12-18T07:14:01;-3.20;1.00
27747;DHT22;15138;51.012;4.692;2022-12-18T07:16:29;-3.10;1.00
27747;DHT22;15138;51.012;4.692;2022-12-18T07:18:59;-3.10;1.00
27747;DHT22;15138;51.012;4.692;2022-12-18T07:21:27;-3.10;1.00
27747;DHT22;15138;51.012;4.692;2022-12-18T07:23:55;-3.10;1.00
27747;DHT22;15138;51.012;4.692;2022-12-18T07:26:23;-3.30;1.00
27747;DHT22;15138;51.012;4.692;2022-12-18T07:28:55;-3.20;1.00
27747;DHT22;15138;51.012;4.692;2022-12-18T07:31:24;-3.10;1.00
27747;DHT22;15138;51.012;4.692;2022-12-18T07:33:52;-2.90;1.00
27747;DHT22;15138;51.012;4.692;2022-12-18T07:36:23;-2.90;1.00
27747;DHT22;15138;51.012;4.692;2022-12-18T07:38:51;-2.90;1.00
27747;DHT22;15138;51.012;4.692;2022-12-18T07:41:19;-2.90;1.00
27747;DHT22;15138;51.012;4.692;2022-12-18T07:43:47;-2.90;1.00
27747;DHT22;15138;51.012;4.692;2022-12-18T07:46:17;-2.80;1.00
27747;DHT22;15138;51.012;4.692;2022-12-18T07:48:45;-2.80;1.00
27747;DHT22;15138;51.012;4.692;2022-12-18T07:51:15;-2.90;1.00
27747;DHT22;15138;51.012;4.692;2022-12-18T07:53:44;-3.00;1.00
27747;DHT22;15138;51.012;4.692;2022-12-18T07:56:15;-3.10;1.00
27747;DHT22;15138;51.012;4.692;2022-12-18T07:58:53;-3.00;1.00
27747;DHT22;15138;51.012;4.692;2022-12-18T08:01:23;-2.90;4.30
27747;DHT22;15138;51.012;4.692;2022-12-18T08:03:51;-2.70;7.00
27747;DHT22;15138;51.012;4.692;2022-12-18T08:06:19;-2.90;7.70
27747;DHT22;15138;51.012;4.692;2022-12-18T08:08:50;-2.90;11.10
27747;DHT22;15138;51.012;4.692;2022-12-18T08:11:18;-3.00;19.50
27747;DHT22;15138;51.012;4.692;2022-12-18T08:13:47;-2.90;45.10
27747;DHT22;15138;51.012;4.692;2022-12-18T08:16:15;-2.80;49.90
27747;DHT22;15138;51.012;4.692;2022-12-18T08:18:44;-2.70;78.70
27747;DHT22;15138;51.012;4.692;2022-12-18T08:21:13;-2.50;99.90
27747;DHT22;15138;51.012;4.692;2022-12-18T08:23:41;-2.00;99.90
27747;DHT22;15138;51.012;4.692;2022-12-18T08:26:10;-2.10;99.90
27747;DHT22;15138;51.012;4.692;2022-12-18T08:28:38;-2.00;99.90
27747;DHT22;15138;51.012;4.692;2022-12-18T08:31:06;-2.00;1.00
27747;DHT22;15138;51.012;4.692;2022-12-18T08:33:35;-1.90;1.00
27747;DHT22;15138;51.012;4.692;2022-12-18T08:36:06;-1.50;99.90
27747;DHT22;15138;51.012;4.692;2022-12-18T08:38:34;-1.40;1.00
27747;DHT22;15138;51.012;4.692;2022-12-18T08:41:03;-1.10;1.00
27747;DHT22;15138;51.012;4.692;2022-12-18T08:43:31;-0.90;1.00
27747;DHT22;15138;51.012;4.692;2022-12-18T08:46:16;-0.20;1.00
27747;DHT22;15138;51.012;4.692;2022-12-18T08:48:45;0.00;1.00
27747;DHT22;15138;51.012;4.692;2022-12-18T08:51:15;-0.60;99.90
27747;DHT22;15138;51.012;4.692;2022-12-18T08:53:43;-0.10;99.90
27747;DHT22;15138;51.012;4.692;2022-12-18T08:56:12;0.00;1.00
27747;DHT22;15138;51.012;4.692;2022-12-18T08:58:40;0.00;1.00
27747;DHT22;15138;51.012;4.692;2022-12-18T09:01:09;0.10;1.00
27747;DHT22;15138;51.012;4.692;2022-12-18T09:03:37;-0.10;1.00
27747;DHT22;15138;51.012;4.692;2022-12-18T09:06:06;0.70;1.00
27747;DHT22;15138;51.012;4.692;2022-12-18T09:08:36;0.60;99.90
27747;DHT22;15138;51.012;4.692;2022-12-18T09:11:04;0.70;1.00
27747;DHT22;15138;51.012;4.692;2022-12-18T09:13:38;0.90;99.90
27747;DHT22;15138;51.012;4.692;2022-12-18T09:16:06;1.00;99.90
27747;DHT22;15138;51.012;4.692;2022-12-18T09:18:34;1.00;99.90
27747;DHT22;15138;51.012;4.692;2022-12-18T09:21:10;1.20;99.90
27747;DHT22;15138;51.012;4.692;2022-12-18T09:23:39;1.20;99.90
27747;DHT22;15138;51.012;4.692;2022-12-18T09:26:07;1.30;99.90
27747;DHT22;15138;51.012;4.692;2022-12-18T09:28:35;1.40;99.90
27747;DHT22;15138;51.012;4.692;2022-12-18T09:31:04;1.50;99.90
27747;DHT22;15138;51.012;4.692;2022-12-18T09:33:33;1.50;99.90
27747;DHT22;15138;51.012;4.692;2022-12-18T09:36:01;1.50;99.90
27747;DHT22;15138;51.012;4.692;2022-12-18T09:38:29;1.50;99.90
27747;DHT22;15138;51.012;4.692;2022-12-18T09:40:59;1.50;99.90
27747;DHT22;15138;51.012;4.692;2022-12-18T09:43:28;1.90;99.90
27747;DHT22;15138;51.012;4.692;2022-12-18T09:45:59;1.60;99.90
27747;DHT22;15138;51.012;4.692;2022-12-18T09:48:29;1.60;99.90
27747;DHT22;15138;51.012;4.692;2022-12-18T09:50:59;1.80;1.00
27747;DHT22;15138;51.012;4.692;2022-12-18T09:53:30;2.00;1.00
27747;DHT22;15138;51.012;4.692;2022-12-18T09:56:01;2.10;99.90
27747;DHT22;15138;51.012;4.692;2022-12-18T09:58:30;1.80;99.90
27747;DHT22;15138;51.012;4.692;2022-12-18T10:00:59;1.90;99.90
27747;DHT22;15138;51.012;4.692;2022-12-18T10:03:27;1.90;99.90
27747;DHT22;15138;51.012;4.692;2022-12-18T10:05:58;1.70;99.90
27747;DHT22;15138;51.012;4.692;2022-12-18T10:08:29;1.90;99.90
27747;DHT22;15138;51.012;4.692;2022-12-18T10:11:01;1.80;99.90
27747;DHT22;15138;51.012;4.692;2022-12-18T10:13:31;1.80;99.90
27747;DHT22;15138;51.012;4.692;2022-12-18T10:16:04;2.00;99.90
27747;DHT22;15138;51.012;4.692;2022-12-18T10:18:44;1.60;40.10
27747;DHT22;15138;51.012;4.692;2022-12-18T10:21:15;1.70;80.20
27747;DHT22;15138;51.012;4.692;2022-12-18T10:23:47;1.70;92.80
27747;DHT22;15138;51.012;4.692;2022-12-18T10:26:20;1.70;98.90
27747;DHT22;15138;51.012;4.692;2022-12-18T10:28:48;1.70;99.90
27747;DHT22;15138;51.012;4.692;2022-12-18T10:31:16;1.60;99.90
27747;DHT22;15138;51.012;4.692;2022-12-18T10:33:45;1.60;99.90
27747;DHT22;15138;51.012;4.692;2022-12-18T10:36:13;1.60;99.90
27747;DHT22;15138;51.012;4.692;2022-12-18T10:38:40;1.60;99.90
27747;DHT22;15138;51.012;4.692;2022-12-18T10:41:23;1.50;99.90
27747;DHT22;15138;51.012;4.692;2022-12-18T10:46:37;2.20;99.90
27747;DHT22;15138;51.012;4.692;2022-12-18T10:49:05;1.60;99.90
27747;DHT22;15138;51.012;4.692;2022-12-18T10:51:34;1.60;99.90
27747;DHT22;15138;51.012;4.692;2022-12-18T10:54:04;1.60;99.90
27747;DHT22;15138;51.012;4.692;2022-12-18T10:56:33;1.70;99.90
27747;DHT22;15138;51.012;4.692;2022-12-18T10:59:02;1.70;99.90
27747;DHT22;15138;51.012;4.692;2022-12-18T11:01:45;1.70;99.90
27747;DHT22;15138;51.012;4.692;2022-12-18T11:04:15;1.80;99.90
27747;DHT22;15138;51.012;4.692;2022-12-18T11:06:52;1.80;1.00
27747;DHT22;15138;51.012;4.692;2022-12-18T11:09:20;1.80;1.00
27747;DHT22;15138;51.012;4.692;2022-12-18T11:11:49;1.90;1.00
27747;DHT22;15138;51.012;4.692;2022-12-18T11:14:20;1.90;1.00
27747;DHT22;15138;51.012;4.692;2022-12-18T11:16:50;2.40;1.00
27747;DHT22;15138;51.012;4.692;2022-12-18T11:19:39;2.10;1.00
27747;DHT22;15138;51.012;4.692;2022-12-18T11:22:17;2.10;1.00
27747;DHT22;15138;51.012;4.692;2022-12-18T11:24:51;2.10;1.00
27747;DHT22;15138;51.012;4.692;2022-12-18T11:27:40;2.10;1.00
27747;DHT22;15138;51.012;4.692;2022-12-18T11:30:08;2.10;1.00
27747;DHT22;15138;51.012;4.692;2022-12-18T11:32:38;2.00;1.00
27747;DHT22;15138;51.012;4.692;2022-12-18T11:35:11;2.00;92.60
27747;DHT22;15138;51.012;4.692;2022-12-18T11:37:41;2.00;99.90
27747;DHT22;15138;51.012;4.692;2022-12-18T11:40:13;2.50;99.90
27747;DHT22;15138;51.012;4.692;2022-12-18T11:42:43;1.70;99.90
27747;DHT22;15138;51.012;4.692;2022-12-18T11:45:22;1.70;99.90
27747;DHT22;15138;51.012;4.692;2022-12-18T11:47:54;1.60;99.90
27747;DHT22;15138;51.012;4.692;2022-12-18T11:50:24;1.80;99.90
27747;DHT22;15138;51.012;4.692;2022-12-18T11:52:52;1.80;1.00
27747;DHT22;15138;51.012;4.692;2022-12-18T11:55:28;1.90;1.00
27747;DHT22;15138;51.012;4.692;2022-12-18T11:58:00;2.00;99.90
27747;DHT22;15138;51.012;4.692;2022-12-18T12:00:30;2.00;99.90
27747;DHT22;15138;51.012;4.692;2022-12-18T12:03:08;2.00;99.90
27747;DHT22;15138;51.012;4.692;2022-12-18T12:05:44;2.10;1.00
27747;DHT22;15138;51.012;4.692;2022-12-18T12:08:18;2.10;99.90
27747;DHT22;15138;51.012;4.692;2022-12-18T12:10:52;2.20;99.90
27747;DHT22;15138;51.012;4.692;2022-12-18T12:13:27;2.30;52.20
27747;DHT22;15138;51.012;4.692;2022-12-18T12:16:00;2.30;5.20
27747;DHT22;15138;51.012;4.692;2022-12-18T12:18:32;2.20;1.00
27747;DHT22;15138;51.012;4.692;2022-12-18T12:21:03;2.20;1.00
27747;DHT22;15138;51.012;4.692;2022-12-18T12:23:34;2.10;96.60
27747;DHT22;15138;51.012;4.692;2022-12-18T12:26:06;2.10;1.00
27747;DHT22;15138;51.012;4.692;2022-12-18T12:28:44;2.30;99.90
27747;DHT22;15138;51.012;4.692;2022-12-18T12:31:17;2.10;1.00
27747;DHT22;15138;51.012;4.692;2022-12-18T12:33:51;2.10;99.90
27747;DHT22;15138;51.012;4.692;2022-12-18T12:36:22;2.20;1.00
27747;DHT22;15138;51.012;4.692;2022-12-18T12:38:54;2.30;1.00
27747;DHT22;15138;51.012;4.692;2022-12-18T12:41:24;2.40;99.90
27747;DHT22;15138;51.012;4.692;2022-12-18T12:44:13;2.50;46.80
27747;DHT22;15138;51.012;4.692;2022-12-18T12:46:42;2.40;1.00
27747;DHT22;15138;51.012;4.692;2022-12-18T12:49:14;2.40;99.90
27747;DHT22;15138;51.012;4.692;2022-12-18T12:51:43;2.50;1.00
27747;DHT22;15138;51.012;4.692;2022-12-18T12:54:14;2.50;1.00
27747;DHT22;15138;51.012;4.692;2022-12-18T12:56:44;2.60;1.00
27747;DHT22;15138;51.012;4.692;2022-12-18T12:59:14;2.60;1.00
27747;DHT22;15138;51.012;4.692;2022-12-18T13:01:48;2.70;1.00
27747;DHT22;15138;51.012;4.692;2022-12-18T13:04:20;2.70;1.00
27747;DHT22;15138;51.012;4.692;2022-12-18T13:06:53;2.70;1.00
27747;DHT22;15138;51.012;4.692;2022-12-18T13:09:22;2.80;1.00
27747;DHT22;15138;51.012;4.692;2022-12-18T13:11:50;2.80;1.00
27747;DHT22;15138;51.012;4.692;2022-12-18T13:14:36;2.80;1.00
27747;DHT22;15138;51.012;4.692;2022-12-18T13:17:14;2.80;1.00
27747;DHT22;15138;51.012;4.692;2022-12-18T13:19:44;2.80;1.00
27747;DHT22;15138;51.012;4.692;2022-12-18T13:22:22;2.70;1.00
27747;DHT22;15138;51.012;4.692;2022-12-18T13:24:50;2.60;99.90
27747;DHT22;15138;51.012;4.692;2022-12-18T13:30:20;2.40;1.00
27747;DHT22;15138;51.012;4.692;2022-12-18T13:36:01;2.20;99.90
27747;DHT22;15138;51.012;4.692;2022-12-18T13:38:32;2.10;1.00
27747;DHT22;15138;51.012;4.692;2022-12-18T13:41:01;2.10;1.00
27747;DHT22;15138;51.012;4.692;2022-12-18T13:43:31;2.10;99.90
27747;DHT22;15138;51.012;4.692;2022-12-18T13:46:01;2.10;99.90
27747;DHT22;15138;51.012;4.692;2022-12-18T13:48:31;2.20;1.00
27747;DHT22;15138;51.012;4.692;2022-12-18T13:51:02;2.30;1.00
27747;DHT22;15138;51.012;4.692;2022-12-18T13:53:33;2.50;99.90
27747;DHT22;15138;51.012;4.692;2022-12-18T13:56:01;2.30;1.00
27747;DHT22;15138;51.012;4.692;2022-12-18T13:58:29;2.40;1.00
27747;DHT22;15138;51.012;4.692;2022-12-18T14:00:57;2.40;65.70
27747;DHT22;15138;51.012;4.692;2022-12-18T14:03:28;2.40;99.90
27747;DHT22;15138;51.012;4.692;2022-12-18T14:06:03;2.30;1.00
27747;DHT22;15138;51.012;4.692;2022-12-18T14:08:33;2.20;99.90
27747;DHT22;15138;51.012;4.692;2022-12-18T14:11:03;2.40;99.90
27747;DHT22;15138;51.012;4.692;2022-12-18T14:13:33;2.40;99.90
27747;DHT22;15138;51.012;4.692;2022-12-18T14:16:03;2.50;1.00
27747;DHT22;15138;51.012;4.692;2022-12-18T14:18:33;2.50;1.00
27747;DHT22;15138;51.012;4.692;2022-12-18T14:21:05;2.60;1.00
27747;DHT22;15138;51.012;4.692;2022-12-18T14:23:35;2.60;1.00
27747;DHT22;15138;51.012;4.692;2022-12-18T14:26:19;2.60;99.90
27747;DHT22;15138;51.012;4.692;2022-12-18T14:28:47;2.60;99.90
27747;DHT22;15138;51.012;4.692;2022-12-18T14:31:18;2.40;25.00
27747;DHT22;15138;51.012;4.692;2022-12-18T14:33:47;2.50;1.00
27747;DHT22;15138;51.012;4.692;2022-12-18T14:36:16;2.60;10.90
27747;DHT22;15138;51.012;4.692;2022-12-18T14:38:47;2.60;1.00
27747;DHT22;15138;51.012;4.692;2022-12-18T14:41:16;2.60;99.90
27747;DHT22;15138;51.012;4.692;2022-12-18T14:43:45;2.20;1.00
27747;DHT22;15138;51.012;4.692;2022-12-18T14:46:26;2.40;1.00
27747;DHT22;15138;51.012;4.692;2022-12-18T14:48:55;2.40;99.90
27747;DHT22;15138;51.012;4.692;2022-12-18T14:51:25;2.50;99.90
27747;DHT22;15138;51.012;4.692;2022-12-18T14:53:53;2.50;99.90
27747;DHT22;15138;51.012;4.692;2022-12-18T14:56:23;2.50;1.00
27747;DHT22;15138;51.012;4.692;2022-12-18T14:58:52;2.60;1.00
27747;DHT22;15138;51.012;4.692;2022-12-18T15:01:25;2.50;99.90
27747;DHT22;15138;51.012;4.692;2022-12-18T15:03:55;2.50;99.90
27747;DHT22;15138;51.012;4.692;2022-12-18T15:06:26;2.50;99.90
27747;DHT22;15138;51.012;4.692;2022-12-18T15:08:54;2.50;99.90
27747;DHT22;15138;51.012;4.692;2022-12-18T15:11:30;2.50;99.90
27747;DHT22;15138;51.012;4.692;2022-12-18T15:14:03;2.40;99.90
27747;DHT22;15138;51.012;4.692;2022-12-18T15:16:50;2.30;1.00
27747;DHT22;15138;51.012;4.692;2022-12-18T15:19:18;2.30;99.90
27747;DHT22;15138;51.012;4.692;2022-12-18T15:21:47;2.30;99.90
27747;DHT22;15138;51.012;4.692;2022-12-18T15:24:26;2.30;47.80
27747;DHT22;15138;51.012;4.692;2022-12-18T15:26:54;2.00;1.00
27747;DHT22;15138;51.012;4.692;2022-12-18T15:29:22;1.90;1.00
27747;DHT22;15138;51.012;4.692;2022-12-18T15:31:58;2.00;99.90
27747;DHT22;15138;51.012;4.692;2022-12-18T15:34:27;1.60;99.90
27747;DHT22;15138;51.012;4.692;2022-12-18T15:36:56;1.60;99.90
27747;DHT22;15138;51.012;4.692;2022-12-18T15:39:24;1.50;99.90
27747;DHT22;15138;51.012;4.692;2022-12-18T15:41:52;1.40;1.00
27747;DHT22;15138;51.012;4.692;2022-12-18T15:44:37;1.40;1.00
27747;DHT22;15138;51.012;4.692;2022-12-18T15:47:08;1.70;1.00
27747;DHT22;15138;51.012;4.692;2022-12-18T15:49:37;1.30;1.00
27747;DHT22;15138;51.012;4.692;2022-12-18T15:52:07;1.20;1.00
27747;DHT22;15138;51.012;4.692;2022-12-18T15:54:35;1.20;1.00
27747;DHT22;15138;51.012;4.692;2022-12-18T15:57:22;1.20;1.00
27747;DHT22;15138;51.012;4.692;2022-12-18T15:59:51;1.20;1.00
27747;DHT22;15138;51.012;4.692;2022-12-18T16:02:20;1.20;1.00
27747;DHT22;15138;51.012;4.692;2022-12-18T16:04:50;1.20;1.00
27747;DHT22;15138;51.012;4.692;2022-12-18T16:07:19;1.10;1.00
27747;DHT22;15138;51.012;4.692;2022-12-18T16:09:51;1.20;1.00
27747;DHT22;15138;51.012;4.692;2022-12-18T16:12:21;1.10;1.00